Time;durP1;ratioP1;P1;durP2;ratioP2;P2;SDS_P1;SDS_P2;PMS_P1;PMS_P2;Temp;Humidity;BMP_temperature;BMP_pressure;BME280_temperature;BME280_humidity;BME280_pressure;Samples;Min_cycle;Max_cycle;Signal;HPM_P1;HPM_P2
2023/01/13 00:00:08;;;;;;;6.10;5.23;;;;;;;8.62;100.00;99722.38;5070657;28;20216;-60
2023/01/13 00:02:35;;;;;;;6.37;5.63;;;;;;;8.61;100.00;99715.50;5070941;28;20276;-60
2023/01/13 00:05:02;;;;;;;10.97;5.57;;;;;;;8.57;100.00;99719.91;5070623;28;20203;-61
2023/01/13 00:07:29;;;;;;;5.20;4.80;;;;;;;8.57;100.00;99725.09;5070429;28;20307;-61
2023/01/13 00:09:56;;;;;;;6.67;5.30;;;;;;;8.58;100.00;99726.75;5070774;28;20215;-59
2023/01/13 00:12:22;;;;;;;5.77;4.87;;;;;;;8.59;100.00;99730.19;5070422;28;20695;-59
2023/01/13 00:14:51;;;;;;;6.73;6.03;;;;;;;8.54;100.00;99727.72;5070528;28;20686;-59
2023/01/13 00:17:18;;;;;;;6.10;5.57;;;;;;;8.56;100.00;99725.97;5070131;28;20192;-61
2023/01/13 00:19:45;;;;;;;6.67;5.47;;;;;;;8.47;100.00;99717.47;5069763;28;20613;-61
2023/01/13 00:22:12;;;;;;;5.93;5.33;;;;;;;8.51;100.00;99725.16;5070417;28;20202;-61
2023/01/13 00:24:39;;;;;;;5.47;4.80;;;;;;;8.49;100.00;99720.88;5070538;28;20195;-61
2023/01/13 00:27:05;;;;;;;5.20;4.80;;;;;;;8.44;100.00;99717.56;5070416;28;20231;-60
2023/01/13 00:29:32;;;;;;;5.20;4.80;;;;;;;8.41;100.00;99720.19;5070332;28;20200;-60
2023/01/13 00:32:00;;;;;;;4.60;4.30;;;;;;;8.53;100.00;99720.81;5070230;28;20582;-60
2023/01/13 00:34:27;;;;;;;5.07;4.47;;;;;;;8.41;100.00;99723.63;5070004;28;20199;-61
2023/01/13 00:36:55;;;;;;;4.93;4.53;;;;;;;8.46;100.00;99719.25;5070214;28;20290;-62
2023/01/13 00:39:22;;;;;;;4.67;4.20;;;;;;;8.43;100.00;99718.44;5069882;28;20227;-59
2023/01/13 00:44:33;;;;;;;4.67;4.23;;;;;;;8.38;100.00;99711.59;5070405;28;20742;-60
2023/01/13 00:47:01;;;;;;;4.57;4.17;;;;;;;8.40;100.00;99715.88;5069714;28;20653;-59
2023/01/13 00:49:28;;;;;;;4.50;4.10;;;;;;;8.30;100.00;99721.19;5070190;28;20192;-60
2023/01/13 00:51:55;;;;;;;5.03;4.63;;;;;;;8.32;100.00;99716.03;5069835;28;20200;-60
2023/01/13 00:54:22;;;;;;;4.63;4.23;;;;;;;8.29;100.00;99716.88;5069632;28;20207;-58
2023/01/13 00:56:49;;;;;;;4.70;4.30;;;;;;;8.27;100.00;99715.19;5069847;28;20214;-61
2023/01/13 00:59:15;;;;;;;4.60;4.17;;;;;;;8.27;100.00;99717.78;5069538;28;20216;-61
2023/01/13 01:01:42;;;;;;;4.60;4.20;;;;;;;8.32;100.00;99716.88;5068932;28;20592;-61
2023/01/13 01:04:11;;;;;;;4.93;4.53;;;;;;;8.28;100.00;99711.72;5070091;28;20206;-60
2023/01/13 01:06:38;;;;;;;4.70;4.30;;;;;;;8.33;100.00;99709.97;5069978;28;20668;-58
2023/01/13 01:09:05;;;;;;;4.87;4.37;;;;;;;8.34;100.00;99712.53;5069290;28;20326;-59
2023/01/13 01:11:33;;;;;;;4.87;4.43;;;;;;;8.27;100.00;99717.78;5069598;28;20579;-60
2023/01/13 01:14:03;;;;;;;5.77;4.23;;;;;;;8.32;100.00;99718.59;5069518;28;20211;-59
2023/01/13 01:16:31;;;;;;;5.60;4.20;;;;;;;8.32;100.00;99713.44;5069472;28;20207;-60
2023/01/13 01:18:59;;;;;;;4.83;4.43;;;;;;;8.25;100.00;99691.09;5069498;28;20196;-59
2023/01/13 01:21:28;;;;;;;4.67;4.37;;;;;;;8.42;100.00;99706.38;5069449;28;20196;-60
2023/01/13 01:23:56;;;;;;;4.37;4.03;;;;;;;8.40;100.00;99697.78;5069628;28;20196;-61
2023/01/13 01:26:24;;;;;;;4.70;4.20;;;;;;;8.31;100.00;99711.69;5069282;28;20731;-61
2023/01/13 01:28:52;;;;;;;4.73;4.33;;;;;;;8.29;100.00;99701.38;5069797;28;20257;-61
2023/01/13 01:31:21;;;;;;;5.30;4.80;;;;;;;8.32;100.00;99706.53;5069970;28;20521;-61
2023/01/13 01:33:49;;;;;;;5.50;5.00;;;;;;;8.28;100.00;99697.06;5069504;28;20612;-61
2023/01/13 01:36:18;;;;;;;4.63;4.23;;;;;;;8.32;100.00;99709.13;5069713;28;20192;-59
2023/01/13 01:38:47;;;;;;;4.87;4.30;;;;;;;8.28;100.00;99691.03;5069722;28;20593;-61
2023/01/13 01:41:16;;;;;;;5.13;4.60;;;;;;;8.33;100.00;99695.31;5069504;28;20229;-61
2023/01/13 01:43:58;;;;;;;4.50;4.10;;;;;;;8.34;100.00;99693.56;5069864;28;20200;-62
2023/01/13 01:46:25;;;;;;;4.83;4.37;;;;;;;8.31;99.98;99699.66;5069638;28;20223;-61
2023/01/13 01:48:58;;;;;;;5.50;4.40;;;;;;;8.18;100.00;99692.06;5069558;28;20202;-61
2023/01/13 01:51:25;;;;;;;5.37;4.00;;;;;;;8.17;100.00;99695.53;5069250;28;20725;-61
2023/01/13 01:53:56;;;;;;;4.47;4.07;;;;;;;8.10;100.00;99692.22;5069248;28;20239;-60
2023/01/13 01:56:23;;;;;;;4.70;4.30;;;;;;;8.12;100.00;99694.78;5069239;28;20192;-60
2023/01/13 01:58:53;;;;;;;3.93;3.63;;;;;;;8.15;100.00;99699.88;5069275;28;20199;-59
2023/01/13 02:01:20;;;;;;;4.00;3.70;;;;;;;8.19;100.00;99696.38;5069032;28;20230;-61
2023/01/13 02:03:59;;;;;;;4.17;3.80;;;;;;;8.15;100.00;99695.56;5069657;28;20200;-60
2023/01/13 02:06:28;;;;;;;3.87;3.53;;;;;;;8.17;100.00;99691.22;5069024;28;20210;-60
2023/01/13 02:08:57;;;;;;;3.60;3.30;;;;;;;8.27;100.00;99697.09;5069217;28;20196;-60
2023/01/13 02:14:09;;;;;;;3.77;3.47;;;;;;;8.26;100.00;99703.13;5072494;28;20287;-60
2023/01/13 02:16:39;;;;;;;3.83;3.53;;;;;;;8.20;99.82;99703.25;5072502;28;20200;-61
2023/01/13 02:19:21;;;;;;;3.40;3.10;;;;;;;8.25;99.67;99704.00;5072360;28;20206;-61
2023/01/13 02:22:15;;;;;;;3.53;3.23;;;;;;;8.25;99.42;99704.00;5072976;28;20815;-60
2023/01/13 02:25:15;;;;;;;4.00;3.60;;;;;;;8.18;99.44;99705.00;5072648;28;20215;-61
2023/01/13 02:27:57;;;;;;;3.47;3.23;;;;;;;8.21;99.79;99704.97;5072539;28;20238;-59
2023/01/13 02:33:36;;;;;;;3.53;3.23;;;;;;;8.18;100.00;99702.41;5072288;28;20273;-61
2023/01/13 02:36:09;;;;;;;3.70;3.40;;;;;;;8.17;99.82;99700.72;5072334;28;20254;-61
2023/01/13 02:38:49;;;;;;;3.50;3.20;;;;;;;8.15;100.00;99715.38;5072362;28;20200;-59
2023/01/13 02:44:11;;;;;;;3.37;3.17;;;;;;;8.18;99.38;99712.75;5072271;28;20280;-60
2023/01/13 02:46:53;;;;;;;3.27;3.07;;;;;;;8.13;99.77;99725.75;5072369;28;20592;-60
2023/01/13 02:49:28;;;;;;;3.20;2.97;;;;;;;8.15;99.31;99726.59;5072073;28;20196;-60
2023/01/13 02:52:03;;;;;;;3.03;2.73;;;;;;;8.15;99.75;99728.31;5072022;28;20199;-59
2023/01/13 02:54:33;;;;;;;3.20;3.00;;;;;;;8.07;99.92;99725.00;5072367;28;20663;-61
2023/01/13 02:57:02;;;;;;;5.43;3.80;;;;;;;8.09;100.00;99728.41;5072228;28;20199;-60
2023/01/13 02:59:31;;;;;;;3.53;3.27;;;;;;;7.96;100.00;99712.25;5071999;28;20208;-59
2023/01/13 03:02:02;;;;;;;3.30;3.10;;;;;;;8.01;99.78;99721.63;5071774;28;20577;-58
2023/01/13 03:04:50;;;;;;;3.77;3.47;;;;;;;7.98;100.00;99719.09;5071762;28;20211;-58
2023/01/13 03:07:54;;;;;;;3.47;3.27;;;;;;;8.00;100.00;99717.34;5071976;28;20200;-59
2023/01/13 03:10:38;;;;;;;3.77;3.47;;;;;;;8.03;100.00;99726.78;5071866;28;20191;-59
2023/01/13 03:13:18;;;;;;;3.33;3.13;;;;;;;7.91;100.00;99716.59;5071882;28;20203;-59
2023/01/13 03:15:54;;;;;;;4.03;3.70;;;;;;;7.93;100.00;99707.97;5071946;28;20221;-60
2023/01/13 03:18:36;;;;;;;3.10;2.90;;;;;;;7.99;100.00;99723.41;5071781;28;20550;-60
2023/01/13 03:21:09;;;;;;;3.40;3.10;;;;;;;7.92;100.00;99726.06;5071464;28;20220;-61
2023/01/13 03:23:43;;;;;;;3.80;3.50;;;;;;;8.01;100.00;99726.78;5070454;28;20196;-59
2023/01/13 03:26:15;;;;;;;3.83;3.53;;;;;;;8.03;100.00;99724.19;5071495;28;20253;-60
2023/01/13 03:28:49;;;;;;;2.93;2.73;;;;;;;8.00;100.00;99719.09;5071194;28;20283;-59
2023/01/13 03:31:21;;;;;;;3.50;3.20;;;;;;;7.94;100.00;99719.16;5071236;28;20203;-59
2023/01/13 03:33:55;;;;;;;3.87;3.57;;;;;;;7.91;100.00;99707.13;5071177;28;20203;-59
2023/01/13 03:36:26;;;;;;;4.13;3.83;;;;;;;7.93;100.00;99723.47;5071685;28;20656;-59
2023/01/13 03:38:57;;;;;;;4.23;3.83;;;;;;;7.88;100.00;99722.72;5071408;28;20770;-59
2023/01/13 03:41:29;;;;;;;3.93;3.53;;;;;;;7.83;100.00;99727.06;5071207;28;20219;-58
2023/01/13 03:46:56;;;;;;;4.33;3.93;;;;;;;7.88;100.00;99735.63;5071165;28;20202;-59
2023/01/13 03:49:29;;;;;;;4.00;3.70;;;;;;;7.97;100.00;99734.63;5070963;28;20202;-58
2023/01/13 03:52:01;;;;;;;5.07;3.67;;;;;;;7.95;100.00;99736.38;5071168;28;20204;-59
2023/01/13 03:54:31;;;;;;;4.77;4.37;;;;;;;7.90;100.00;99733.84;5070392;28;20195;-59
2023/01/13 03:57:02;;;;;;;5.53;4.40;;;;;;;7.88;100.00;99734.78;5070946;28;20192;-58
2023/01/13 03:59:33;;;;;;;4.37;3.97;;;;;;;7.87;100.00;99733.91;5070941;28;20583;-58
2023/01/13 04:02:05;;;;;;;6.40;4.50;;;;;;;7.81;100.00;99731.41;5070646;28;20195;-58
2023/01/13 04:04:38;;;;;;;4.40;4.10;;;;;;;7.86;100.00;99737.38;5070777;28;20192;-59
2023/01/13 04:07:12;;;;;;;7.70;5.30;;;;;;;7.81;100.00;99744.31;5070449;28;20196;-61
2023/01/13 04:09:46;;;;;;;4.67;4.27;;;;;;;7.77;100.00;99747.84;5070611;28;20199;-59
2023/01/13 04:12:18;;;;;;;4.00;3.70;;;;;;;7.76;100.00;99740.97;5070334;28;20196;-59
2023/01/13 04:14:46;;;;;;;4.60;4.20;;;;;;;7.80;100.00;99749.50;5070407;28;20200;-59
2023/01/13 04:17:13;;;;;;;5.07;4.57;;;;;;;7.84;100.00;99754.63;5070353;28;20207;-59
2023/01/13 04:19:41;;;;;;;4.73;4.33;;;;;;;7.84;100.00;99749.44;5069757;28;20192;-59
2023/01/13 04:22:08;;;;;;;4.57;4.17;;;;;;;7.86;100.00;99755.47;5070213;28;20230;-59
2023/01/13 04:24:36;;;;;;;4.70;4.30;;;;;;;7.91;100.00;99748.47;5070026;28;20207;-60
2023/01/13 04:27:02;;;;;;;4.87;4.53;;;;;;;7.90;100.00;99754.53;5070276;28;20615;-59
2023/01/13 04:29:29;;;;;;;4.30;3.90;;;;;;;7.95;100.00;99757.91;5070445;28;20291;-60
2023/01/13 04:31:56;;;;;;;5.13;4.63;;;;;;;7.99;100.00;99753.56;5070920;28;20196;-59
2023/01/13 04:34:23;;;;;;;4.53;4.10;;;;;;;7.97;100.00;99751.00;5069794;28;20218;-58
2023/01/13 04:36:51;;;;;;;5.03;4.63;;;;;;;7.91;100.00;99752.78;5070458;28;20566;-58
2023/01/13 04:39:18;;;;;;;5.27;4.77;;;;;;;7.84;100.00;99757.22;5069920;28;20196;-58
2023/01/13 04:41:57;;;;;;;4.37;4.07;;;;;;;7.82;100.00;99758.09;5067334;28;20230;-58
2023/01/13 04:44:24;;;;;;;4.87;4.47;;;;;;;7.87;100.00;99764.06;5068688;28;20196;-57
2023/01/13 04:46:51;;;;;;;5.63;5.13;;;;;;;7.76;100.00;99756.47;5068379;28;20592;-58
2023/01/13 04:49:18;;;;;;;7.00;4.50;;;;;;;7.79;100.00;99764.16;5068966;28;20295;-59
2023/01/13 04:51:45;;;;;;;4.73;4.43;;;;;;;7.78;100.00;99767.63;5069221;28;20656;-58
2023/01/13 04:54:15;;;;;;;5.10;4.60;;;;;;;7.80;100.00;99768.44;5069431;28;20618;-59
2023/01/13 04:56:41;;;;;;;6.23;4.63;;;;;;;7.70;100.00;99764.28;5066980;28;20195;-59
2023/01/13 04:59:09;;;;;;;5.13;4.63;;;;;;;7.77;100.00;99762.50;5068681;28;20192;-59
2023/01/13 05:01:36;;;;;;;5.60;5.10;;;;;;;7.58;100.00;99759.28;5069253;28;20222;-58
2023/01/13 05:04:03;;;;;;;7.00;4.43;;;;;;;7.65;100.00;99773.84;5069391;28;20195;-60
2023/01/13 05:06:30;;;;;;;5.47;4.97;;;;;;;7.71;100.00;99771.16;5069809;28;20200;-58
2023/01/13 05:08:57;;;;;;;4.80;4.40;;;;;;;7.78;100.00;99775.41;5069375;28;20226;-58
2023/01/13 05:17:03;;;;;;;7.33;4.90;;;;;;;7.86;100.00;99783.88;5060425;28;20253;-59
2023/01/13 05:19:31;;;;;;;5.20;4.80;;;;;;;7.99;100.00;99788.03;5069931;28;20196;-59
2023/01/13 05:27:30;;;;;;;5.10;4.60;;;;;;;7.99;100.00;99785.44;5068512;28;20227;-59
2023/01/13 05:29:57;;;;;;;5.43;4.33;;;;;;;7.97;100.00;99789.75;5068612;28;20290;-58
2023/01/13 05:32:26;;;;;;;4.50;4.10;;;;;;;7.96;100.00;99793.22;5067738;28;20192;-61
2023/01/13 05:34:53;;;;;;;5.60;4.50;;;;;;;7.94;100.00;99792.38;5068771;28;20575;-61
2023/01/13 05:37:20;;;;;;;5.30;4.80;;;;;;;7.97;100.00;99794.94;5069652;28;20558;-59
2023/01/13 05:45:17;;;;;;;5.17;4.77;;;;;;;7.91;100.00;99797.59;5069331;28;20207;-59
2023/01/13 05:47:44;;;;;;;5.70;5.10;;;;;;;7.96;100.00;99800.97;5071509;28;20202;-59
2023/01/13 05:50:11;;;;;;;4.83;4.43;;;;;;;7.78;100.00;99780.56;5073190;28;20688;-58
2023/01/13 05:52:38;;;;;;;5.27;4.50;;;;;;;7.85;100.00;99805.44;5073238;28;20203;-58
2023/01/13 05:55:06;;;;;;;4.90;4.30;;;;;;;7.87;100.00;99801.09;5073194;28;20587;-58
2023/01/13 05:57:34;;;;;;;7.93;6.07;;;;;;;7.70;100.00;99797.88;5073102;28;20198;-58
2023/01/13 06:00:01;;;;;;;6.03;5.00;;;;;;;7.67;100.00;99797.94;5073282;28;20192;-59
2023/01/13 06:02:28;;;;;;;4.73;4.33;;;;;;;7.66;100.00;99811.72;5072823;28;20293;-59
2023/01/13 06:04:55;;;;;;;8.30;4.83;;;;;;;7.79;100.00;99807.25;5073024;28;20210;-58
2023/01/13 06:07:22;;;;;;;6.97;4.87;;;;;;;7.91;100.00;99812.25;5072886;28;20682;-59
2023/01/13 06:09:49;;;;;;;9.10;5.17;;;;;;;7.97;100.00;99807.00;5072918;28;20195;-59
2023/01/13 06:12:15;;;;;;;6.23;4.67;;;;;;;7.93;100.00;99801.00;5072508;28;20282;-59
2023/01/13 06:14:44;;;;;;;11.60;5.13;;;;;;;8.08;100.00;99814.59;5073018;28;20204;-59
2023/01/13 06:17:12;;;;;;;6.20;5.33;;;;;;;8.03;100.00;99805.16;5072541;28;20292;-59
2023/01/13 06:19:40;;;;;;;6.10;5.03;;;;;;;8.10;100.00;99823.19;5072642;28;20203;-60
2023/01/13 06:22:13;;;;;;;5.37;4.67;;;;;;;8.11;100.00;99820.59;5072247;28;20220;-59
2023/01/13 06:24:40;;;;;;;5.57;4.83;;;;;;;8.08;100.00;99824.94;5072394;28;20203;-60
2023/01/13 06:27:09;;;;;;;6.47;4.63;;;;;;;8.07;100.00;99818.06;5072511;28;20758;-60
2023/01/13 06:29:36;;;;;;;7.30;4.93;;;;;;;8.06;100.00;99822.38;5072748;28;20188;-60
2023/01/13 06:32:07;;;;;;;8.50;5.27;;;;;;;8.06;100.00;99826.69;5072696;28;20219;-60
2023/01/13 06:34:35;;;;;;;12.10;5.43;;;;;;;8.03;100.00;99825.84;5072604;28;20225;-60
2023/01/13 06:37:04;;;;;;;5.67;5.03;;;;;;;8.11;100.00;99819.75;5072629;28;20294;-60
2023/01/13 06:39:32;;;;;;;8.97;4.23;;;;;;;8.23;100.00;99833.34;5072889;28;20204;-60
2023/01/13 06:44:44;;;;;;;5.87;4.93;;;;;;;8.33;100.00;99826.34;5072733;28;20718;-61
2023/01/13 06:47:13;;;;;;;7.87;4.87;;;;;;;8.39;100.00;99834.00;5072110;28;20582;-61
2023/01/13 06:49:39;;;;;;;5.50;5.00;;;;;;;8.45;99.94;99836.50;5072598;28;20728;-62
2023/01/13 06:52:06;;;;;;;11.33;5.60;;;;;;;8.28;100.00;99810.84;5072659;28;20573;-61
2023/01/13 06:54:34;;;;;;;8.47;5.60;;;;;;;8.40;100.00;99843.47;5072718;28;20200;-62
2023/01/13 06:57:01;;;;;;;5.93;5.37;;;;;;;8.35;99.84;99845.28;5072558;28;20679;-61
2023/01/13 06:59:28;;;;;;;7.13;6.37;;;;;;;8.31;100.00;99843.59;5072253;28;20199;-60
2023/01/13 07:01:55;;;;;;;12.27;7.47;;;;;;;8.25;100.00;99841.06;5072251;28;20219;-61
2023/01/13 07:04:23;;;;;;;8.90;8.00;;;;;;;8.22;100.00;99846.31;5072445;28;20660;-61
2023/01/13 07:06:50;;;;;;;12.23;7.73;;;;;;;8.18;100.00;99845.47;5072290;28;20202;-61
2023/01/13 07:09:17;;;;;;;15.40;8.37;;;;;;;8.22;100.00;99849.75;5071389;28;20202;-61
2023/01/13 07:11:44;;;;;;;12.77;7.47;;;;;;;8.21;100.00;99858.38;5072329;28;20192;-62
2023/01/13 07:16:55;;;;;;;10.47;7.03;;;;;;;8.31;100.00;99859.09;5071768;28;20260;-61
2023/01/13 07:19:23;;;;;;;14.77;9.63;;;;;;;8.37;100.00;99856.44;5070547;28;20286;-61
2023/01/13 07:21:51;;;;;;;17.97;9.90;;;;;;;8.30;100.00;99849.63;5071698;28;20219;-61
2023/01/13 07:24:18;;;;;;;11.63;8.77;;;;;;;8.28;100.00;99853.97;5071733;28;20701;-60
2023/01/13 07:26:47;;;;;;;20.77;11.37;;;;;;;8.31;100.00;99861.69;5071882;28;20765;-62
2023/01/13 07:29:14;;;;;;;14.83;9.67;;;;;;;8.25;100.00;99859.16;5071296;28;20307;-60
2023/01/13 07:31:41;;;;;;;11.53;8.37;;;;;;;8.28;100.00;99859.13;5071946;28;20199;-60
2023/01/13 07:34:08;;;;;;;12.80;8.53;;;;;;;8.32;100.00;99866.00;5068068;28;20200;-60
2023/01/13 07:36:36;;;;;;;14.23;10.50;;;;;;;8.26;100.00;99861.72;5071650;28;20199;-61
2023/01/13 07:39:03;;;;;;;14.63;8.23;;;;;;;8.42;100.00;99867.59;5071424;28;20211;-60
2023/01/13 07:44:14;;;;;;;16.80;11.67;;;;;;;8.49;100.00;99861.44;5071214;28;20261;-60
2023/01/13 07:46:42;;;;;;;35.73;19.87;;;;;;;8.52;100.00;99864.00;5071074;28;20206;-60
2023/01/13 07:49:09;;;;;;;25.13;14.50;;;;;;;8.61;100.00;99861.25;5071025;28;20207;-60
2023/01/13 07:51:38;;;;;;;16.83;11.77;;;;;;;8.65;100.00;99870.69;5070906;28;20202;-60
2023/01/13 07:54:06;;;;;;;14.63;11.13;;;;;;;8.72;100.00;99867.13;5070880;28;20207;-61
2023/01/13 07:56:33;;;;;;;17.20;11.87;;;;;;;8.72;100.00;99856.78;5067757;28;20661;-61
2023/01/13 07:59:00;;;;;;;20.80;13.13;;;;;;;8.70;100.00;99875.78;5069512;28;20204;-60
2023/01/13 08:01:28;;;;;;;22.63;13.97;;;;;;;8.63;100.00;99872.44;5066990;28;20216;-61
2023/01/13 08:03:57;;;;;;;15.97;11.23;;;;;;;8.56;100.00;99859.63;5069737;28;20207;-60
2023/01/13 08:06:24;;;;;;;11.87;9.43;;;;;;;8.68;100.00;99881.00;5069378;28;20188;-60
2023/01/13 08:08:52;;;;;;;10.03;7.83;;;;;;;8.71;100.00;99880.06;5069551;28;20196;-62
2023/01/13 08:11:19;;;;;;;9.00;7.63;;;;;;;8.78;100.00;99891.22;5069198;28;20192;-61
2023/01/13 08:13:46;;;;;;;14.67;9.70;;;;;;;8.85;100.00;99885.91;5067428;28;20773;-61
2023/01/13 08:16:14;;;;;;;38.37;22.53;;;;;;;8.77;100.00;99890.34;5069563;28;20192;-61
2023/01/13 08:18:42;;;;;;;43.73;22.13;;;;;;;8.69;100.00;99887.88;5069426;28;20200;-61
2023/01/13 08:21:11;;;;;;;35.37;19.10;;;;;;;8.66;100.00;99892.25;5069034;28;20727;-61
2023/01/13 08:23:38;;;;;;;12.80;9.00;;;;;;;8.72;100.00;99887.81;5069377;28;20199;-61
2023/01/13 08:26:09;;;;;;;11.33;8.03;;;;;;;8.74;100.00;99891.25;5069026;28;20200;-60
2023/01/13 08:28:36;;;;;;;18.13;8.53;;;;;;;8.69;100.00;99889.63;5069458;28;20198;-62
2023/01/13 08:31:04;;;;;;;10.90;8.67;;;;;;;8.71;100.00;99895.59;5069316;28;20276;-61
2023/01/13 08:33:32;;;;;;;13.43;7.83;;;;;;;8.84;100.00;99885.91;5069015;28;20196;-62
2023/01/13 08:36:02;;;;;;;8.60;7.53;;;;;;;8.81;100.00;99891.13;5069080;28;20199;-61
2023/01/13 08:38:29;;;;;;;12.17;7.63;;;;;;;8.86;100.00;99897.09;5066802;28;20192;-61
2023/01/13 08:40:56;;;;;;;12.03;8.10;;;;;;;8.99;100.00;99893.44;5069696;28;20592;-61
2023/01/13 08:43:24;;;;;;;18.50;10.57;;;;;;;9.11;100.00;99895.84;5068926;28;20267;-61
2023/01/13 08:45:58;;;;;;;17.53;11.47;;;;;;;9.18;100.00;99886.22;5069035;28;20188;-61
2023/01/13 08:48:25;;;;;;;19.53;12.40;;;;;;;9.22;100.00;99887.88;5068571;28;20196;-61
2023/01/13 08:50:53;;;;;;;18.33;13.33;;;;;;;9.27;100.00;99901.59;5068734;28;20227;-61
2023/01/13 08:53:20;;;;;;;19.00;13.23;;;;;;;9.41;100.00;99897.88;5068689;28;20257;-61
2023/01/13 08:55:47;;;;;;;24.33;14.57;;;;;;;9.43;100.00;99898.72;5069111;28;20188;-61
2023/01/13 08:58:14;;;;;;;20.40;12.70;;;;;;;9.34;100.00;99896.31;5068723;28;20198;-61
2023/01/13 09:00:43;;;;;;;17.10;12.40;;;;;;;9.31;100.00;99893.75;5068673;28;20192;-59
2023/01/13 09:03:09;;;;;;;25.37;16.03;;;;;;;9.40;100.00;99890.13;5066129;28;20303;-59
2023/01/13 09:05:36;;;;;;;29.70;17.53;;;;;;;9.59;100.00;99888.09;5068500;28;20192;-59
2023/01/13 09:08:03;;;;;;;29.03;18.63;;;;;;;9.67;100.00;99891.38;5068197;28;20192;-58
2023/01/13 09:10:31;;;;;;;24.07;16.47;;;;;;;9.74;100.00;99893.81;5068293;28;20202;-61
2023/01/13 09:13:12;;;;;;;24.37;16.20;;;;;;;9.88;100.00;99885.78;5068484;28;20241;-62
2023/01/13 09:15:39;;;;;;;25.43;17.17;;;;;;;9.92;100.00;99871.88;5067740;28;20675;-61
2023/01/13 09:18:08;;;;;;;23.80;16.73;;;;;;;9.81;100.00;99884.19;5068564;28;20204;-60
2023/01/13 09:20:35;;;;;;;26.13;16.33;;;;;;;9.84;100.00;99874.59;5068560;28;20196;-58
2023/01/13 09:23:02;;;;;;;23.63;15.87;;;;;;;9.95;100.00;99871.78;5067001;28;20235;-58
2023/01/13 09:25:29;;;;;;;29.13;16.33;;;;;;;10.02;100.00;99873.38;5072064;28;20223;-58
2023/01/13 09:27:56;;;;;;;25.77;16.67;;;;;;;10.02;100.00;99870.78;5072938;28;20737;-61
2023/01/13 09:30:24;;;;;;;21.37;14.63;;;;;;;10.07;100.00;99871.53;5072936;28;20346;-62
2023/01/13 09:34:58;;;;;;;18.33;14.70;;;;;;;9.99;100.00;99868.25;5073235;28;21468;-61
2023/01/13 09:35:39;;;;;;;24.10;15.20;;;;;;;9.90;100.00;99868.44;5073367;28;20224;-62
2023/01/13 09:38:06;;;;;;;20.23;14.77;;;;;;;9.90;100.00;99868.44;5090830;28;20211;-61
2023/01/13 09:40:33;;;;;;;30.23;16.17;;;;;;;9.80;100.00;99843.59;5093102;28;20199;-59
2023/01/13 09:45:59;;;;;;;19.70;15.10;;;;;;;9.90;100.00;99863.25;5067749;28;20683;-60
2023/01/13 09:48:30;;;;;;;21.77;14.70;;;;;;;9.82;100.00;99853.03;5093517;28;20191;-59
2023/01/13 09:51:13;;;;;;;19.43;13.73;;;;;;;9.80;100.00;99857.41;5093600;28;20201;-63
2023/01/13 09:53:48;;;;;;;20.70;13.93;;;;;;;9.90;100.00;99852.91;5093633;28;20663;-59
2023/01/13 09:56:14;;;;;;;23.07;16.47;;;;;;;9.94;100.00;99854.50;5093632;28;20194;-58
2023/01/13 09:58:42;;;;;;;24.60;17.87;;;;;;;10.06;100.00;99850.81;5093451;28;20743;-57
2023/01/13 10:01:18;;;;;;;33.93;23.07;;;;;;;10.06;100.00;99849.06;5092965;28;20197;-60
2023/01/13 10:03:45;;;;;;;34.57;24.60;;;;;;;10.03;100.00;99846.56;5093461;28;20313;-58
2023/01/13 10:06:18;;;;;;;25.23;18.27;;;;;;;10.05;100.00;99846.50;5092976;28;20201;-60
2023/01/13 10:08:47;;;;;;;24.03;16.50;;;;;;;10.11;100.00;99847.25;5070693;28;20202;-58
2023/01/13 10:14:03;;;;;;;25.90;15.17;;;;;;;10.33;100.00;99839.03;5070125;28;20782;-63
2023/01/13 10:16:41;;;;;;;23.17;16.93;;;;;;;10.34;100.00;99838.13;5071154;28;20192;-58
2023/01/13 10:19:16;;;;;;;20.37;14.20;;;;;;;10.39;100.00;99825.91;5071366;28;20210;-58
2023/01/13 10:22:10;;;;;;;19.97;14.23;;;;;;;10.52;100.00;99817.78;5071382;28;20206;-61
2023/01/13 10:25:01;;;;;;;26.77;16.70;;;;;;;10.50;100.00;99818.72;5069356;28;20195;-62
2023/01/13 10:27:33;;;;;;;22.93;14.87;;;;;;;10.26;100.00;99816.72;5070295;28;20307;-57
2023/01/13 10:30:11;;;;;;;20.23;13.60;;;;;;;10.33;100.00;99810.47;5071443;28;20231;-61
2023/01/13 10:32:38;;;;;;;23.97;15.57;;;;;;;10.37;100.00;99804.34;5068715;28;20194;-62
2023/01/13 10:35:06;;;;;;;21.50;15.57;;;;;;;10.37;100.00;99806.94;5071052;28;20278;-58
2023/01/13 10:37:34;;;;;;;21.57;13.97;;;;;;;10.35;100.00;99812.16;5068282;28;20195;-60
2023/01/13 10:40:02;;;;;;;21.20;16.03;;;;;;;10.40;100.00;99809.44;5071293;28;20195;-59
2023/01/13 10:42:29;;;;;;;20.67;14.57;;;;;;;10.45;100.00;99802.41;5070913;28;20294;-60
2023/01/13 10:44:58;;;;;;;21.50;14.13;;;;;;;10.52;100.00;99801.38;5071000;28;20634;-59
2023/01/13 10:47:27;;;;;;;24.97;15.80;;;;;;;10.65;100.00;99801.94;5070994;28;20686;-59
2023/01/13 10:50:18;;;;;;;21.57;15.93;;;;;;;10.80;100.00;99794.63;5068514;28;20200;-59
2023/01/13 10:52:59;;;;;;;22.73;14.80;;;;;;;10.83;100.00;99786.75;5069858;28;20586;-59
2023/01/13 10:55:30;;;;;;;21.07;14.77;;;;;;;10.97;100.00;99795.91;5069847;28;20206;-58
2023/01/13 10:57:58;;;;;;;21.20;15.63;;;;;;;10.90;100.00;99798.69;5067873;28;20201;-60
2023/01/13 11:00:31;;;;;;;22.67;14.83;;;;;;;10.84;100.00;99791.03;5069342;28;20707;-60
2023/01/13 11:03:19;;;;;;;31.27;17.30;;;;;;;10.84;100.00;99791.03;5068285;28;20300;-59
2023/01/13 11:05:52;;;;;;;29.53;18.33;;;;;;;10.84;100.00;99783.25;5069186;28;20196;-59
2023/01/13 11:08:22;;;;;;;23.87;17.13;;;;;;;10.84;100.00;99777.19;5067186;28;20249;-59
2023/01/13 11:10:51;;;;;;;29.43;18.50;;;;;;;10.93;100.00;99776.13;5068638;28;20301;-58
2023/01/13 11:13:22;;;;;;;27.43;16.77;;;;;;;11.05;100.00;99775.81;5068799;28;20688;-59
2023/01/13 11:15:55;;;;;;;47.83;24.43;;;;;;;11.21;100.00;99777.09;5069044;28;20192;-60
2023/01/13 11:18:28;;;;;;;40.90;24.57;;;;;;;11.25;100.00;99770.94;5067262;28;20675;-60
2023/01/13 11:20:57;;;;;;;31.50;18.87;;;;;;;11.13;100.00;99779.06;5068268;28;20192;-59
2023/01/13 11:23:32;;;;;;;33.83;21.30;;;;;;;11.19;100.00;99769.34;5067742;28;20251;-59
2023/01/13 11:26:04;;;;;;;27.80;19.07;;;;;;;11.20;100.00;99776.22;5068488;28;20206;-60
2023/01/13 11:28:49;;;;;;;23.30;16.80;;;;;;;11.22;100.00;99778.78;5068594;28;20188;-60
2023/01/13 11:31:23;;;;;;;22.93;15.57;;;;;;;11.03;100.00;99775.00;5068278;28;20299;-60
2023/01/13 11:33:55;;;;;;;21.27;14.20;;;;;;;10.96;100.00;99766.50;5068223;28;20188;-57
2023/01/13 11:36:25;;;;;;;20.47;15.50;;;;;;;11.04;100.00;99774.09;5064287;28;20224;-58
2023/01/13 11:38:56;;;;;;;23.77;14.77;;;;;;;11.06;100.00;99767.13;5069202;28;20303;-60
2023/01/13 11:41:38;;;;;;;23.67;14.10;;;;;;;10.88;100.00;99761.50;5069055;28;20312;-59
2023/01/13 11:44:15;;;;;;;21.17;13.20;;;;;;;10.80;100.00;99766.06;5067458;28;20615;-60
2023/01/13 11:46:42;;;;;;;17.53;12.77;;;;;;;10.72;100.00;99747.22;5067238;28;20216;-60
2023/01/13 11:49:15;;;;;;;22.20;14.13;;;;;;;10.88;100.00;99758.91;5069239;28;20192;-60
2023/01/13 11:51:50;;;;;;;18.57;13.90;;;;;;;11.00;100.00;99768.13;5069793;28;20195;-60
2023/01/13 11:54:38;;;;;;;16.67;13.30;;;;;;;11.07;100.00;99768.81;5067635;28;20195;-59
2023/01/13 11:57:37;;;;;;;21.37;13.20;;;;;;;11.01;100.00;99771.59;5068555;28;20200;-59
2023/01/13 12:00:22;;;;;;;16.10;12.77;;;;;;;10.84;100.00;99770.25;5064725;28;20208;-60
2023/01/13 12:02:56;;;;;;;21.27;14.07;;;;;;;10.72;100.00;99767.97;5068830;28;20763;-59
2023/01/13 12:05:34;;;;;;;22.23;13.10;;;;;;;10.70;100.00;99764.59;5069410;28;20270;-60
2023/01/13 12:08:15;;;;;;;21.93;13.47;;;;;;;10.81;100.00;99766.91;5067603;28;20202;-60
2023/01/13 12:10:58;;;;;;;18.20;12.80;;;;;;;10.85;100.00;99764.19;5067538;28;20195;-61
2023/01/13 12:13:34;;;;;;;21.87;13.67;;;;;;;10.78;100.00;99756.59;5068160;28;20678;-61
2023/01/13 12:16:22;;;;;;;19.87;13.10;;;;;;;10.82;99.53;99759.09;5067445;28;20575;-60
2023/01/13 12:19:20;;;;;;;19.37;12.93;;;;;;;10.80;99.21;99757.41;5067288;28;20212;-60
2023/01/13 12:22:09;;;;;;;20.57;13.10;;;;;;;10.81;99.45;99756.53;5064291;28;20196;-59
2023/01/13 12:24:43;;;;;;;21.60;14.30;;;;;;;10.82;97.98;99751.31;5060377;28;20192;-60
2023/01/13 12:27:17;;;;;;;23.30;14.90;;;;;;;10.96;96.91;99748.31;5068294;28;20219;-59